sensor_id;sensor_type;location;lat;lon;timestamp;P1;durP1;ratioP1;P2;durP2;ratioP2
18217;SDS011;9234;49.344;11.120;2023-07-09T00:02:20;8.88;;;7.93;;
18217;SDS011;9234;49.344;11.120;2023-07-09T00:04:50;8.90;;;7.43;;
18217;SDS011;9234;49.344;11.120;2023-07-09T00:07:20;12.73;;;7.88;;
18217;SDS011;9234;49.344;11.120;2023-07-09T00:09:56;13.35;;;7.97;;
18217;SDS011;9234;49.344;11.120;2023-07-09T00:12:25;8.77;;;7.90;;
18217;SDS011;9234;49.344;11.120;2023-07-09T00:14:54;9.10;;;8.20;;
18217;SDS011;9234;49.344;11.120;2023-07-09T00:17:25;8.30;;;7.50;;
18217;SDS011;9234;49.344;11.120;2023-07-09T00:19:56;9.48;;;8.10;;
18217;SDS011;9234;49.344;11.120;2023-07-09T00:22:26;9.93;;;7.80;;
18217;SDS011;9234;49.344;11.120;2023-07-09T00:24:55;10.13;;;7.68;;
18217;SDS011;9234;49.344;11.120;2023-07-09T00:27:25;8.93;;;8.07;;
18217;SDS011;9234;49.344;11.120;2023-07-09T00:29:57;9.25;;;8.02;;
18217;SDS011;9234;49.344;11.120;2023-07-09T00:32:25;9.25;;;8.18;;
18217;SDS011;9234;49.344;11.120;2023-07-09T00:34:54;8.85;;;7.95;;
18217;SDS011;9234;49.344;11.120;2023-07-09T00:37:23;8.25;;;7.45;;
18217;SDS011;9234;49.344;11.120;2023-07-09T00:39:55;10.68;;;8.07;;
18217;SDS011;9234;49.344;11.120;2023-07-09T00:42:24;10.38;;;7.95;;
18217;SDS011;9234;49.344;11.120;2023-07-09T00:44:53;12.35;;;8.57;;
18217;SDS011;9234;49.344;11.120;2023-07-09T00:47:23;10.65;;;7.45;;
18217;SDS011;9234;49.344;11.120;2023-07-09T00:50:03;9.50;;;7.97;;
18217;SDS011;9234;49.344;11.120;2023-07-09T00:52:45;7.90;;;6.97;;
18217;SDS011;9234;49.344;11.120;2023-07-09T00:55:21;8.98;;;7.55;;
18217;SDS011;9234;49.344;11.120;2023-07-09T00:57:53;9.63;;;7.97;;
18217;SDS011;9234;49.344;11.120;2023-07-09T01:00:30;9.50;;;7.90;;
18217;SDS011;9234;49.344;11.120;2023-07-09T01:03:09;9.90;;;7.40;;
18217;SDS011;9234;49.344;11.120;2023-07-09T01:05:42;9.85;;;7.47;;
18217;SDS011;9234;49.344;11.120;2023-07-09T01:08:12;9.43;;;8.10;;
18217;SDS011;9234;49.344;11.120;2023-07-09T01:10:40;9.73;;;7.57;;
18217;SDS011;9234;49.344;11.120;2023-07-09T01:13:09;11.90;;;8.45;;
18217;SDS011;9234;49.344;11.120;2023-07-09T01:15:41;9.70;;;8.13;;
18217;SDS011;9234;49.344;11.120;2023-07-09T01:18:09;10.02;;;7.45;;
18217;SDS011;9234;49.344;11.120;2023-07-09T01:20:38;11.63;;;8.30;;
18217;SDS011;9234;49.344;11.120;2023-07-09T01:23:08;10.48;;;7.60;;
18217;SDS011;9234;49.344;11.120;2023-07-09T01:25:38;9.02;;;7.60;;
18217;SDS011;9234;49.344;11.120;2023-07-09T01:28:13;10.35;;;8.07;;
18217;SDS011;9234;49.344;11.120;2023-07-09T01:30:43;9.48;;;7.93;;
18217;SDS011;9234;49.344;11.120;2023-07-09T01:33:12;10.25;;;7.57;;
18217;SDS011;9234;49.344;11.120;2023-07-09T01:35:41;10.05;;;8.23;;
18217;SDS011;9234;49.344;11.120;2023-07-09T01:38:10;9.38;;;7.68;;
18217;SDS011;9234;49.344;11.120;2023-07-09T01:40:38;11.13;;;8.07;;
18217;SDS011;9234;49.344;11.120;2023-07-09T01:43:07;10.68;;;7.70;;
18217;SDS011;9234;49.344;11.120;2023-07-09T01:45:35;11.88;;;7.30;;
18217;SDS011;9234;49.344;11.120;2023-07-09T01:48:05;9.65;;;7.65;;
18217;SDS011;9234;49.344;11.120;2023-07-09T01:50:42;9.30;;;7.95;;
18217;SDS011;9234;49.344;11.120;2023-07-09T01:53:12;9.80;;;8.15;;
18217;SDS011;9234;49.344;11.120;2023-07-09T01:55:43;9.13;;;8.23;;
18217;SDS011;9234;49.344;11.120;2023-07-09T01:58:12;9.02;;;8.13;;
18217;SDS011;9234;49.344;11.120;2023-07-09T02:00:42;10.98;;;8.15;;
18217;SDS011;9234;49.344;11.120;2023-07-09T02:03:11;10.60;;;7.75;;
18217;SDS011;9234;49.344;11.120;2023-07-09T02:05:41;8.65;;;7.68;;
18217;SDS011;9234;49.344;11.120;2023-07-09T02:08:09;9.07;;;8.10;;
18217;SDS011;9234;49.344;11.120;2023-07-09T02:10:39;8.85;;;7.95;;
18217;SDS011;9234;49.344;11.120;2023-07-09T02:13:10;9.60;;;8.05;;
18217;SDS011;9234;49.344;11.120;2023-07-09T02:15:38;9.15;;;8.10;;
18217;SDS011;9234;49.344;11.120;2023-07-09T02:18:10;9.30;;;7.75;;
18217;SDS011;9234;49.344;11.120;2023-07-09T02:20:40;10.80;;;8.77;;
18217;SDS011;9234;49.344;11.120;2023-07-09T02:23:08;8.52;;;7.63;;
18217;SDS011;9234;49.344;11.120;2023-07-09T02:25:37;9.90;;;8.77;;
18217;SDS011;9234;49.344;11.120;2023-07-09T02:28:07;8.52;;;7.72;;
18217;SDS011;9234;49.344;11.120;2023-07-09T02:30:36;9.45;;;8.52;;
18217;SDS011;9234;49.344;11.120;2023-07-09T02:33:05;10.63;;;8.68;;
18217;SDS011;9234;49.344;11.120;2023-07-09T02:35:33;9.55;;;8.45;;
18217;SDS011;9234;49.344;11.120;2023-07-09T02:38:02;9.00;;;8.10;;
18217;SDS011;9234;49.344;11.120;2023-07-09T02:40:31;10.80;;;8.32;;
18217;SDS011;9234;49.344;11.120;2023-07-09T02:43:01;12.77;;;8.48;;
18217;SDS011;9234;49.344;11.120;2023-07-09T02:45:29;10.65;;;8.48;;
18217;SDS011;9234;49.344;11.120;2023-07-09T02:47:58;9.80;;;8.80;;
18217;SDS011;9234;49.344;11.120;2023-07-09T02:50:29;9.00;;;7.88;;
18217;SDS011;9234;49.344;11.120;2023-07-09T02:52:58;14.88;;;9.48;;
18217;SDS011;9234;49.344;11.120;2023-07-09T02:55:26;10.40;;;7.93;;
18217;SDS011;9234;49.344;11.120;2023-07-09T02:57:56;9.30;;;8.15;;
18217;SDS011;9234;49.344;11.120;2023-07-09T03:00:25;12.50;;;9.68;;
18217;SDS011;9234;49.344;11.120;2023-07-09T03:02:54;10.70;;;8.98;;
18217;SDS011;9234;49.344;11.120;2023-07-09T03:05:23;13.55;;;8.82;;
18217;SDS011;9234;49.344;11.120;2023-07-09T03:07:51;11.43;;;8.65;;
18217;SDS011;9234;49.344;11.120;2023-07-09T03:10:19;12.52;;;8.80;;
18217;SDS011;9234;49.344;11.120;2023-07-09T03:12:48;10.27;;;8.52;;
18217;SDS011;9234;49.344;11.120;2023-07-09T03:15:16;10.05;;;9.05;;
18217;SDS011;9234;49.344;11.120;2023-07-09T03:17:45;9.60;;;8.60;;
18217;SDS011;9234;49.344;11.120;2023-07-09T03:20:14;9.30;;;8.38;;
18217;SDS011;9234;49.344;11.120;2023-07-09T03:22:42;10.10;;;8.50;;
18217;SDS011;9234;49.344;11.120;2023-07-09T03:25:10;11.38;;;8.32;;
18217;SDS011;9234;49.344;11.120;2023-07-09T03:27:39;11.07;;;9.20;;
18217;SDS011;9234;49.344;11.120;2023-07-09T03:30:07;9.80;;;8.35;;
18217;SDS011;9234;49.344;11.120;2023-07-09T03:32:37;10.15;;;9.00;;
18217;SDS011;9234;49.344;11.120;2023-07-09T03:35:09;12.02;;;8.75;;
18217;SDS011;9234;49.344;11.120;2023-07-09T03:37:37;10.73;;;8.85;;
18217;SDS011;9234;49.344;11.120;2023-07-09T03:40:06;9.57;;;8.13;;
18217;SDS011;9234;49.344;11.120;2023-07-09T03:42:37;11.52;;;8.85;;
18217;SDS011;9234;49.344;11.120;2023-07-09T03:45:06;11.45;;;9.50;;
18217;SDS011;9234;49.344;11.120;2023-07-09T03:47:34;10.00;;;8.40;;
18217;SDS011;9234;49.344;11.120;2023-07-09T03:50:04;8.93;;;8.05;;
18217;SDS011;9234;49.344;11.120;2023-07-09T03:52:36;13.18;;;8.73;;
18217;SDS011;9234;49.344;11.120;2023-07-09T03:55:05;10.73;;;8.90;;
18217;SDS011;9234;49.344;11.120;2023-07-09T03:57:34;10.57;;;7.88;;
18217;SDS011;9234;49.344;11.120;2023-07-09T04:00:03;10.32;;;8.27;;
18217;SDS011;9234;49.344;11.120;2023-07-09T04:02:42;9.48;;;8.02;;
18217;SDS011;9234;49.344;11.120;2023-07-09T04:05:12;9.98;;;8.25;;
18217;SDS011;9234;49.344;11.120;2023-07-09T04:07:40;15.02;;;8.10;;
18217;SDS011;9234;49.344;11.120;2023-07-09T04:10:09;9.95;;;8.30;;
18217;SDS011;9234;49.344;11.120;2023-07-09T04:12:38;10.45;;;7.72;;
18217;SDS011;9234;49.344;11.120;2023-07-09T04:15:07;10.35;;;9.05;;
18217;SDS011;9234;49.344;11.120;2023-07-09T04:17:36;9.25;;;7.68;;
18217;SDS011;9234;49.344;11.120;2023-07-09T04:20:05;9.45;;;8.02;;
18217;SDS011;9234;49.344;11.120;2023-07-09T04:22:37;9.27;;;8.27;;
18217;SDS011;9234;49.344;11.120;2023-07-09T04:25:06;9.98;;;8.18;;
18217;SDS011;9234;49.344;11.120;2023-07-09T04:27:38;11.48;;;8.95;;
18217;SDS011;9234;49.344;11.120;2023-07-09T04:30:08;10.25;;;8.57;;
18217;SDS011;9234;49.344;11.120;2023-07-09T04:32:39;9.90;;;7.93;;
18217;SDS011;9234;49.344;11.120;2023-07-09T04:35:09;15.25;;;7.93;;
18217;SDS011;9234;49.344;11.120;2023-07-09T04:37:40;9.93;;;8.65;;
18217;SDS011;9234;49.344;11.120;2023-07-09T04:40:09;8.90;;;7.90;;
18217;SDS011;9234;49.344;11.120;2023-07-09T04:42:39;10.05;;;8.27;;
18217;SDS011;9234;49.344;11.120;2023-07-09T04:45:09;8.82;;;7.93;;
18217;SDS011;9234;49.344;11.120;2023-07-09T04:47:39;9.10;;;8.20;;
18217;SDS011;9234;49.344;11.120;2023-07-09T04:50:08;10.45;;;8.35;;
18217;SDS011;9234;49.344;11.120;2023-07-09T04:52:37;10.82;;;8.43;;
18217;SDS011;9234;49.344;11.120;2023-07-09T04:55:07;10.90;;;8.77;;
18217;SDS011;9234;49.344;11.120;2023-07-09T04:57:36;10.00;;;8.45;;
18217;SDS011;9234;49.344;11.120;2023-07-09T05:00:05;10.52;;;8.77;;
18217;SDS011;9234;49.344;11.120;2023-07-09T05:02:37;11.27;;;8.68;;
18217;SDS011;9234;49.344;11.120;2023-07-09T05:05:06;10.40;;;8.40;;
18217;SDS011;9234;49.344;11.120;2023-07-09T05:07:34;11.75;;;9.23;;
18217;SDS011;9234;49.344;11.120;2023-07-09T05:10:03;11.50;;;8.20;;
18217;SDS011;9234;49.344;11.120;2023-07-09T05:12:33;10.95;;;8.82;;
18217;SDS011;9234;49.344;11.120;2023-07-09T05:15:01;11.10;;;8.85;;
18217;SDS011;9234;49.344;11.120;2023-07-09T05:17:30;9.60;;;8.55;;
18217;SDS011;9234;49.344;11.120;2023-07-09T05:19:58;9.23;;;7.93;;
18217;SDS011;9234;49.344;11.120;2023-07-09T05:22:27;12.90;;;9.05;;
18217;SDS011;9234;49.344;11.120;2023-07-09T05:24:55;9.77;;;8.07;;
18217;SDS011;9234;49.344;11.120;2023-07-09T05:27:23;13.25;;;8.98;;
18217;SDS011;9234;49.344;11.120;2023-07-09T05:29:53;11.40;;;8.70;;
18217;SDS011;9234;49.344;11.120;2023-07-09T05:32:21;9.43;;;8.52;;
18217;SDS011;9234;49.344;11.120;2023-07-09T05:34:49;9.43;;;8.13;;
18217;SDS011;9234;49.344;11.120;2023-07-09T05:37:18;10.05;;;8.85;;
18217;SDS011;9234;49.344;11.120;2023-07-09T05:39:46;11.13;;;8.32;;
18217;SDS011;9234;49.344;11.120;2023-07-09T05:42:14;9.52;;;8.50;;
18217;SDS011;9234;49.344;11.120;2023-07-09T05:44:42;9.93;;;8.90;;
18217;SDS011;9234;49.344;11.120;2023-07-09T05:47:12;9.98;;;8.98;;
18217;SDS011;9234;49.344;11.120;2023-07-09T05:49:41;12.60;;;8.65;;
18217;SDS011;9234;49.344;11.120;2023-07-09T05:52:09;12.10;;;8.57;;
18217;SDS011;9234;49.344;11.120;2023-07-09T05:54:38;12.10;;;8.40;;
18217;SDS011;9234;49.344;11.120;2023-07-09T05:57:06;10.68;;;8.77;;
18217;SDS011;9234;49.344;11.120;2023-07-09T05:59:34;11.05;;;8.02;;
18217;SDS011;9234;49.344;11.120;2023-07-09T06:02:03;9.50;;;8.50;;
18217;SDS011;9234;49.344;11.120;2023-07-09T06:04:33;9.68;;;7.85;;
18217;SDS011;9234;49.344;11.120;2023-07-09T06:07:02;8.48;;;7.57;;
18217;SDS011;9234;49.344;11.120;2023-07-09T06:09:31;9.60;;;8.15;;
18217;SDS011;9234;49.344;11.120;2023-07-09T06:11:59;10.18;;;8.10;;
18217;SDS011;9234;49.344;11.120;2023-07-09T06:14:28;9.98;;;8.60;;
18217;SDS011;9234;49.344;11.120;2023-07-09T06:16:56;12.68;;;7.80;;
18217;SDS011;9234;49.344;11.120;2023-07-09T06:19:24;9.25;;;8.23;;
18217;SDS011;9234;49.344;11.120;2023-07-09T06:21:54;11.73;;;8.70;;
18217;SDS011;9234;49.344;11.120;2023-07-09T06:24:23;9.73;;;8.05;;
18217;SDS011;9234;49.344;11.120;2023-07-09T06:26:52;11.23;;;7.85;;
18217;SDS011;9234;49.344;11.120;2023-07-09T06:29:20;8.00;;;6.50;;
18217;SDS011;9234;49.344;11.120;2023-07-09T06:31:49;8.05;;;7.25;;
18217;SDS011;9234;49.344;11.120;2023-07-09T06:34:17;11.32;;;7.72;;
18217;SDS011;9234;49.344;11.120;2023-07-09T06:36:45;7.60;;;6.82;;
18217;SDS011;9234;49.344;11.120;2023-07-09T06:39:14;8.55;;;7.13;;
18217;SDS011;9234;49.344;11.120;2023-07-09T06:41:43;8.27;;;7.30;;
18217;SDS011;9234;49.344;11.120;2023-07-09T06:44:31;8.02;;;7.22;;
18217;SDS011;9234;49.344;11.120;2023-07-09T06:46:59;12.65;;;6.40;;
18217;SDS011;9234;49.344;11.120;2023-07-09T06:49:27;9.05;;;7.07;;
18217;SDS011;9234;49.344;11.120;2023-07-09T06:51:56;8.98;;;7.28;;
18217;SDS011;9234;49.344;11.120;2023-07-09T06:54:26;9.95;;;7.25;;
18217;SDS011;9234;49.344;11.120;2023-07-09T06:56:54;8.05;;;7.25;;
18217;SDS011;9234;49.344;11.120;2023-07-09T06:59:22;8.35;;;6.15;;
18217;SDS011;9234;49.344;11.120;2023-07-09T07:01:50;7.30;;;6.55;;
18217;SDS011;9234;49.344;11.120;2023-07-09T07:04:19;6.95;;;6.25;;
18217;SDS011;9234;49.344;11.120;2023-07-09T07:06:47;7.40;;;5.80;;
18217;SDS011;9234;49.344;11.120;2023-07-09T07:09:16;6.88;;;6.18;;
18217;SDS011;9234;49.344;11.120;2023-07-09T07:11:46;7.93;;;6.35;;
18217;SDS011;9234;49.344;11.120;2023-07-09T07:14:14;8.38;;;6.15;;
18217;SDS011;9234;49.344;11.120;2023-07-09T07:16:42;9.15;;;6.95;;
18217;SDS011;9234;49.344;11.120;2023-07-09T07:19:11;8.75;;;6.13;;
18217;SDS011;9234;49.344;11.120;2023-07-09T07:21:39;7.40;;;6.63;;
18217;SDS011;9234;49.344;11.120;2023-07-09T07:24:07;7.55;;;5.47;;
18217;SDS011;9234;49.344;11.120;2023-07-09T07:26:35;6.85;;;5.55;;
18217;SDS011;9234;49.344;11.120;2023-07-09T07:29:05;7.97;;;5.85;;
18217;SDS011;9234;49.344;11.120;2023-07-09T07:31:33;8.30;;;5.15;;
18217;SDS011;9234;49.344;11.120;2023-07-09T07:34:01;6.75;;;5.95;;
18217;SDS011;9234;49.344;11.120;2023-07-09T07:36:30;9.40;;;6.13;;
18217;SDS011;9234;49.344;11.120;2023-07-09T07:39:04;6.40;;;4.88;;
18217;SDS011;9234;49.344;11.120;2023-07-09T07:41:32;7.55;;;6.05;;
18217;SDS011;9234;49.344;11.120;2023-07-09T07:44:00;7.00;;;5.43;;
18217;SDS011;9234;49.344;11.120;2023-07-09T07:46:30;8.85;;;5.53;;
18217;SDS011;9234;49.344;11.120;2023-07-09T07:49:00;6.53;;;5.03;;
18217;SDS011;9234;49.344;11.120;2023-07-09T07:51:28;6.88;;;5.75;;
18217;SDS011;9234;49.344;11.120;2023-07-09T07:53:56;8.02;;;5.45;;
18217;SDS011;9234;49.344;11.120;2023-07-09T07:56:25;7.75;;;5.22;;
18217;SDS011;9234;49.344;11.120;2023-07-09T07:58:53;6.57;;;4.28;;
18217;SDS011;9234;49.344;11.120;2023-07-09T08:01:21;5.22;;;4.55;;
18217;SDS011;9234;49.344;11.120;2023-07-09T08:03:51;6.88;;;4.95;;
18217;SDS011;9234;49.344;11.120;2023-07-09T08:06:19;5.97;;;4.60;;
18217;SDS011;9234;49.344;11.120;2023-07-09T08:08:47;4.55;;;4.15;;
18217;SDS011;9234;49.344;11.120;2023-07-09T08:11:16;5.75;;;4.18;;
18217;SDS011;9234;49.344;11.120;2023-07-09T08:13:44;8.13;;;4.10;;
18217;SDS011;9234;49.344;11.120;2023-07-09T08:16:13;5.75;;;3.92;;
18217;SDS011;9234;49.344;11.120;2023-07-09T08:18:44;6.30;;;3.83;;
18217;SDS011;9234;49.344;11.120;2023-07-09T08:21:14;6.22;;;3.70;;
18217;SDS011;9234;49.344;11.120;2023-07-09T08:23:42;10.02;;;3.85;;
18217;SDS011;9234;49.344;11.120;2023-07-09T08:26:10;8.50;;;3.72;;
18217;SDS011;9234;49.344;11.120;2023-07-09T08:28:39;4.05;;;3.42;;
18217;SDS011;9234;49.344;11.120;2023-07-09T08:31:07;3.50;;;3.20;;
18217;SDS011;9234;49.344;11.120;2023-07-09T08:33:36;7.88;;;4.10;;
18217;SDS011;9234;49.344;11.120;2023-07-09T08:36:06;9.50;;;3.20;;
18217;SDS011;9234;49.344;11.120;2023-07-09T08:38:35;5.25;;;3.40;;
18217;SDS011;9234;49.344;11.120;2023-07-09T08:41:07;4.10;;;3.63;;
18217;SDS011;9234;49.344;11.120;2023-07-09T08:43:53;5.72;;;3.70;;
18217;SDS011;9234;49.344;11.120;2023-07-09T08:46:34;4.78;;;3.08;;
18217;SDS011;9234;49.344;11.120;2023-07-09T08:49:20;4.95;;;3.33;;
18217;SDS011;9234;49.344;11.120;2023-07-09T08:51:58;3.63;;;3.28;;
18217;SDS011;9234;49.344;11.120;2023-07-09T08:54:28;5.53;;;3.83;;
18217;SDS011;9234;49.344;11.120;2023-07-09T08:57:18;5.28;;;4.28;;
18217;SDS011;9234;49.344;11.120;2023-07-09T08:59:52;3.75;;;3.20;;
18217;SDS011;9234;49.344;11.120;2023-07-09T09:02:30;5.10;;;3.28;;
18217;SDS011;9234;49.344;11.120;2023-07-09T09:05:04;5.68;;;3.67;;
18217;SDS011;9234;49.344;11.120;2023-07-09T09:07:38;6.55;;;4.10;;
18217;SDS011;9234;49.344;11.120;2023-07-09T09:10:13;6.18;;;4.45;;
18217;SDS011;9234;49.344;11.120;2023-07-09T09:12:49;6.07;;;3.95;;
18217;SDS011;9234;49.344;11.120;2023-07-09T09:15:32;7.22;;;4.10;;
18217;SDS011;9234;49.344;11.120;2023-07-09T09:18:10;4.55;;;3.90;;
18217;SDS011;9234;49.344;11.120;2023-07-09T09:20:52;5.75;;;3.78;;
18217;SDS011;9234;49.344;11.120;2023-07-09T09:23:25;5.80;;;4.15;;
18217;SDS011;9234;49.344;11.120;2023-07-09T09:26:09;4.15;;;3.63;;
18217;SDS011;9234;49.344;11.120;2023-07-09T09:28:45;5.00;;;4.35;;
18217;SDS011;9234;49.344;11.120;2023-07-09T09:31:13;5.07;;;4.47;;
18217;SDS011;9234;49.344;11.120;2023-07-09T09:33:45;5.63;;;4.25;;
18217;SDS011;9234;49.344;11.120;2023-07-09T09:36:18;5.22;;;4.25;;
18217;SDS011;9234;49.344;11.120;2023-07-09T09:38:48;5.40;;;4.80;;
18217;SDS011;9234;49.344;11.120;2023-07-09T09:41:20;6.72;;;4.65;;
18217;SDS011;9234;49.344;11.120;2023-07-09T09:43:52;5.18;;;4.68;;
18217;SDS011;9234;49.344;11.120;2023-07-09T09:46:23;4.35;;;3.95;;
18217;SDS011;9234;49.344;11.120;2023-07-09T09:48:54;6.07;;;4.70;;
18217;SDS011;9234;49.344;11.120;2023-07-09T09:51:27;7.13;;;4.57;;
18217;SDS011;9234;49.344;11.120;2023-07-09T09:53:57;5.57;;;4.57;;
18217;SDS011;9234;49.344;11.120;2023-07-09T09:56:30;5.72;;;4.70;;
18217;SDS011;9234;49.344;11.120;2023-07-09T09:59:03;9.68;;;4.47;;
18217;SDS011;9234;49.344;11.120;2023-07-09T10:01:33;4.57;;;4.07;;
18217;SDS011;9234;49.344;11.120;2023-07-09T10:04:04;5.20;;;4.72;;
18217;SDS011;9234;49.344;11.120;2023-07-09T10:06:34;4.88;;;4.32;;
18217;SDS011;9234;49.344;11.120;2023-07-09T10:09:09;5.43;;;4.25;;
18217;SDS011;9234;49.344;11.120;2023-07-09T10:11:57;7.88;;;4.60;;
18217;SDS011;9234;49.344;11.120;2023-07-09T10:14:37;6.43;;;4.65;;
18217;SDS011;9234;49.344;11.120;2023-07-09T10:17:19;6.15;;;4.80;;
18217;SDS011;9234;49.344;11.120;2023-07-09T10:20:04;6.30;;;4.32;;
18217;SDS011;9234;49.344;11.120;2023-07-09T10:22:47;7.05;;;4.75;;
18217;SDS011;9234;49.344;11.120;2023-07-09T10:25:29;4.72;;;4.28;;
18217;SDS011;9234;49.344;11.120;2023-07-09T10:31:20;4.63;;;4.22;;
18217;SDS011;9234;49.344;11.120;2023-07-09T10:34:01;6.93;;;4.50;;
18217;SDS011;9234;49.344;11.120;2023-07-09T10:36:48;5.57;;;4.32;;
18217;SDS011;9234;49.344;11.120;2023-07-09T10:39:33;5.07;;;4.00;;
18217;SDS011;9234;49.344;11.120;2023-07-09T10:42:10;5.60;;;4.10;;
18217;SDS011;9234;49.344;11.120;2023-07-09T10:44:54;5.63;;;4.07;;
18217;SDS011;9234;49.344;11.120;2023-07-09T10:47:30;6.97;;;4.28;;
18217;SDS011;9234;49.344;11.120;2023-07-09T10:50:03;9.48;;;4.05;;
18217;SDS011;9234;49.344;11.120;2023-07-09T10:52:40;5.63;;;3.67;;
18217;SDS011;9234;49.344;11.120;2023-07-09T10:55:17;9.80;;;4.05;;
18217;SDS011;9234;49.344;11.120;2023-07-09T10:57:54;4.70;;;4.00;;
18217;SDS011;9234;49.344;11.120;2023-07-09T11:00:31;8.10;;;4.25;;
18217;SDS011;9234;49.344;11.120;2023-07-09T11:03:03;7.45;;;4.45;;
18217;SDS011;9234;49.344;11.120;2023-07-09T11:05:43;6.05;;;4.50;;
18217;SDS011;9234;49.344;11.120;2023-07-09T11:08:13;6.07;;;4.25;;
18217;SDS011;9234;49.344;11.120;2023-07-09T11:10:46;7.30;;;4.22;;
18217;SDS011;9234;49.344;11.120;2023-07-09T11:13:23;7.68;;;4.25;;
18217;SDS011;9234;49.344;11.120;2023-07-09T11:16:20;7.60;;;4.35;;
18217;SDS011;9234;49.344;11.120;2023-07-09T11:18:58;5.45;;;3.60;;
18217;SDS011;9234;49.344;11.120;2023-07-09T11:21:29;5.70;;;3.95;;
18217;SDS011;9234;49.344;11.120;2023-07-09T11:23:58;6.50;;;4.13;;
18217;SDS011;9234;49.344;11.120;2023-07-09T11:26:29;4.95;;;4.03;;
18217;SDS011;9234;49.344;11.120;2023-07-09T11:29:11;6.80;;;4.63;;
18217;SDS011;9234;49.344;11.120;2023-07-09T11:31:45;5.30;;;4.25;;
18217;SDS011;9234;49.344;11.120;2023-07-09T11:34:16;5.05;;;3.80;;
18217;SDS011;9234;49.344;11.120;2023-07-09T11:36:48;4.93;;;4.28;;
18217;SDS011;9234;49.344;11.120;2023-07-09T11:39:27;4.72;;;4.22;;
18217;SDS011;9234;49.344;11.120;2023-07-09T11:41:58;11.18;;;4.15;;
18217;SDS011;9234;49.344;11.120;2023-07-09T11:44:28;6.68;;;4.05;;
18217;SDS011;9234;49.344;11.120;2023-07-09T11:47:03;6.93;;;4.05;;
18217;SDS011;9234;49.344;11.120;2023-07-09T11:49:52;7.53;;;3.90;;
18217;SDS011;9234;49.344;11.120;2023-07-09T11:52:28;6.15;;;4.55;;
18217;SDS011;9234;49.344;11.120;2023-07-09T11:55:01;6.03;;;4.70;;
18217;SDS011;9234;49.344;11.120;2023-07-09T11:57:47;4.68;;;4.10;;
18217;SDS011;9234;49.344;11.120;2023-07-09T12:00:16;5.68;;;4.35;;
18217;SDS011;9234;49.344;11.120;2023-07-09T12:02:46;6.45;;;4.10;;
18217;SDS011;9234;49.344;11.120;2023-07-09T12:05:19;11.15;;;4.75;;
18217;SDS011;9234;49.344;11.120;2023-07-09T12:07:54;4.60;;;4.07;;
18217;SDS011;9234;49.344;11.120;2023-07-09T12:10:24;4.88;;;4.35;;
18217;SDS011;9234;49.344;11.120;2023-07-09T12:12:56;5.55;;;4.10;;
18217;SDS011;9234;49.344;11.120;2023-07-09T12:15:28;7.32;;;4.63;;
18217;SDS011;9234;49.344;11.120;2023-07-09T12:18:00;8.40;;;5.00;;
18217;SDS011;9234;49.344;11.120;2023-07-09T12:20:33;6.57;;;4.38;;
18217;SDS011;9234;49.344;11.120;2023-07-09T12:23:09;15.02;;;5.20;;
18217;SDS011;9234;49.344;11.120;2023-07-09T12:25:46;5.00;;;4.03;;
18217;SDS011;9234;49.344;11.120;2023-07-09T12:28:17;5.20;;;3.83;;
18217;SDS011;9234;49.344;11.120;2023-07-09T12:30:47;10.30;;;4.15;;
18217;SDS011;9234;49.344;11.120;2023-07-09T12:33:18;4.70;;;4.10;;
18217;SDS011;9234;49.344;11.120;2023-07-09T12:35:52;5.38;;;4.18;;
18217;SDS011;9234;49.344;11.120;2023-07-09T12:38:25;4.65;;;4.15;;
18217;SDS011;9234;49.344;11.120;2023-07-09T12:40:59;7.68;;;4.18;;
18217;SDS011;9234;49.344;11.120;2023-07-09T12:43:31;5.10;;;3.65;;
18217;SDS011;9234;49.344;11.120;2023-07-09T12:45:59;5.63;;;4.43;;
18217;SDS011;9234;49.344;11.120;2023-07-09T12:48:30;7.68;;;4.40;;
18217;SDS011;9234;49.344;11.120;2023-07-09T12:50:59;4.53;;;4.00;;
18217;SDS011;9234;49.344;11.120;2023-07-09T12:53:28;5.22;;;4.22;;
18217;SDS011;9234;49.344;11.120;2023-07-09T12:55:58;4.90;;;4.15;;
18217;SDS011;9234;49.344;11.120;2023-07-09T12:58:29;7.72;;;4.50;;
18217;SDS011;9234;49.344;11.120;2023-07-09T13:01:03;5.53;;;4.05;;
18217;SDS011;9234;49.344;11.120;2023-07-09T13:03:36;4.63;;;4.22;;
18217;SDS011;9234;49.344;11.120;2023-07-09T13:06:05;6.32;;;4.30;;
18217;SDS011;9234;49.344;11.120;2023-07-09T13:08:55;5.13;;;4.20;;
18217;SDS011;9234;49.344;11.120;2023-07-09T13:11:26;6.78;;;4.47;;
18217;SDS011;9234;49.344;11.120;2023-07-09T13:14:02;5.53;;;4.43;;
18217;SDS011;9234;49.344;11.120;2023-07-09T13:16:37;4.20;;;3.88;;
18217;SDS011;9234;49.344;11.120;2023-07-09T13:19:13;6.78;;;3.85;;
18217;SDS011;9234;49.344;11.120;2023-07-09T13:21:41;4.18;;;3.75;;
18217;SDS011;9234;49.344;11.120;2023-07-09T13:24:12;5.15;;;3.90;;
18217;SDS011;9234;49.344;11.120;2023-07-09T13:26:50;5.47;;;4.57;;
18217;SDS011;9234;49.344;11.120;2023-07-09T13:29:19;5.03;;;4.53;;
18217;SDS011;9234;49.344;11.120;2023-07-09T13:31:48;8.63;;;4.70;;
18217;SDS011;9234;49.344;11.120;2023-07-09T13:34:20;6.65;;;4.40;;
18217;SDS011;9234;49.344;11.120;2023-07-09T13:36:50;5.45;;;4.25;;
18217;SDS011;9234;49.344;11.120;2023-07-09T13:39:22;5.55;;;4.45;;
18217;SDS011;9234;49.344;11.120;2023-07-09T13:41:54;5.93;;;4.25;;
18217;SDS011;9234;49.344;11.120;2023-07-09T13:44:24;4.78;;;4.32;;
18217;SDS011;9234;49.344;11.120;2023-07-09T13:46:55;9.95;;;4.57;;
18217;SDS011;9234;49.344;11.120;2023-07-09T13:49:25;5.03;;;4.63;;
18217;SDS011;9234;49.344;11.120;2023-07-09T13:51:56;5.63;;;4.45;;
18217;SDS011;9234;49.344;11.120;2023-07-09T13:54:28;6.95;;;4.32;;
18217;SDS011;9234;49.344;11.120;2023-07-09T13:57:02;10.50;;;4.60;;
18217;SDS011;9234;49.344;11.120;2023-07-09T13:59:31;5.70;;;4.18;;
18217;SDS011;9234;49.344;11.120;2023-07-09T14:02:00;6.07;;;4.78;;
18217;SDS011;9234;49.344;11.120;2023-07-09T14:04:33;16.60;;;4.57;;
18217;SDS011;9234;49.344;11.120;2023-07-09T14:07:02;4.45;;;4.07;;
18217;SDS011;9234;49.344;11.120;2023-07-09T14:09:30;5.30;;;4.18;;
18217;SDS011;9234;49.344;11.120;2023-07-09T14:12:00;8.27;;;4.75;;
18217;SDS011;9234;49.344;11.120;2023-07-09T14:14:30;4.43;;;4.03;;
18217;SDS011;9234;49.344;11.120;2023-07-09T14:17:00;5.18;;;4.05;;
18217;SDS011;9234;49.344;11.120;2023-07-09T14:19:28;5.50;;;4.45;;
18217;SDS011;9234;49.344;11.120;2023-07-09T14:21:58;4.32;;;3.92;;
18217;SDS011;9234;49.344;11.120;2023-07-09T14:24:27;4.63;;;4.15;;
18217;SDS011;9234;49.344;11.120;2023-07-09T14:26:57;6.07;;;4.65;;
18217;SDS011;9234;49.344;11.120;2023-07-09T14:29:25;5.82;;;4.80;;
18217;SDS011;9234;49.344;11.120;2023-07-09T14:31:53;4.57;;;4.15;;
18217;SDS011;9234;49.344;11.120;2023-07-09T14:34:22;8.90;;;4.97;;
18217;SDS011;9234;49.344;11.120;2023-07-09T14:36:55;6.35;;;4.30;;
18217;SDS011;9234;49.344;11.120;2023-07-09T14:39:26;5.40;;;4.28;;
18217;SDS011;9234;49.344;11.120;2023-07-09T14:41:55;5.47;;;4.50;;
18217;SDS011;9234;49.344;11.120;2023-07-09T14:44:24;6.32;;;4.70;;
18217;SDS011;9234;49.344;11.120;2023-07-09T14:46:55;6.30;;;4.57;;
18217;SDS011;9234;49.344;11.120;2023-07-09T14:49:26;4.38;;;3.90;;
18217;SDS011;9234;49.344;11.120;2023-07-09T14:51:55;7.03;;;4.40;;
18217;SDS011;9234;49.344;11.120;2023-07-09T14:54:26;5.55;;;4.55;;
18217;SDS011;9234;49.344;11.120;2023-07-09T14:56:56;8.00;;;4.00;;
18217;SDS011;9234;49.344;11.120;2023-07-09T14:59:26;4.32;;;3.92;;
18217;SDS011;9234;49.344;11.120;2023-07-09T15:01:54;5.28;;;4.78;;
18217;SDS011;9234;49.344;11.120;2023-07-09T15:04:25;5.85;;;4.00;;
18217;SDS011;9234;49.344;11.120;2023-07-09T15:06:59;5.75;;;4.20;;
18217;SDS011;9234;49.344;11.120;2023-07-09T15:09:28;5.70;;;4.10;;
18217;SDS011;9234;49.344;11.120;2023-07-09T15:11:58;4.57;;;4.18;;
18217;SDS011;9234;49.344;11.120;2023-07-09T15:14:27;4.88;;;4.13;;